Time;durP1;ratioP1;P1;durP2;ratioP2;P2;SDS_P1;SDS_P2;PMS_P1;PMS_P2;Temp;Humidity;BMP_temperature;BMP_pressure;BME280_temperature;BME280_humidity;BME280_pressure;Samples;Min_cycle;Max_cycle;Signal;HPM_P1;HPM_P2
2022/10/02 00:00:45;;;;;;;;;;;;;;;;;;2132714;27;20399;-45
2022/10/02 00:01:46;;;;;;;;;;;;;;;;;;2132422;27;19923;-45
2022/10/02 00:02:47;;;;;;;;;;;;;;;;;;2132568;27;20056;-45
2022/10/02 00:03:48;;;;;;;;;;;;;;;;;;2132445;27;20333;-46
2022/10/02 00:04:48;;;;;;;;;;;;;;;;;;2132390;27;19931;-45
2022/10/02 00:05:49;;;;;;;;;;;;;;;;;;2132586;27;20403;-45
2022/10/02 00:06:50;;;;;;;;;;;;;;;;;;2132364;27;20019;-45
2022/10/02 00:07:51;;;;;;;;;;;;;;;;;;2132561;27;20372;-45
2022/10/02 00:08:52;;;;;;;;;;;;;;;;;;2132345;27;19923;-46
2022/10/02 00:09:53;;;;;;;;;;;;;;;;;;2132483;27;19923;-45
2022/10/02 00:10:53;;;;;;;;;;;;;;;;;;2132372;27;19923;-45
2022/10/02 00:11:54;;;;;;;;;;;;;;;;;;2132036;27;19923;-45
2022/10/02 00:12:55;;;;;;;;;;;;;;;;;;2132497;27;19999;-45
2022/10/02 00:13:56;;;;;;;;;;;;;;;;;;2132576;27;20284;-45
2022/10/02 00:14:57;;;;;;;;;;;;;;;;;;2132467;27;20368;-45
2022/10/02 00:15:58;;;;;;;;;;;;;;;;;;2132299;27;19924;-45
2022/10/02 00:16:58;;;;;;;;;;;;;;;;;;2132475;27;19929;-45
2022/10/02 00:18:00;;;;;;;;;;;;;;;;;;2132316;27;19970;-46
2022/10/02 00:19:00;;;;;;;;;;;;;;;;;;2132482;27;19923;-45
2022/10/02 00:20:01;;;;;;;;;;;;;;;;;;2132301;27;19987;-45
2022/10/02 00:21:02;;;;;;;;;;;;;;;;;;2132433;27;19923;-45
2022/10/02 00:22:03;;;;;;;;;;;;;;;;;;2132586;27;19923;-44
2022/10/02 00:23:04;;;;;;;;;;;;;;;;;;2132483;27;19950;-43
2022/10/02 00:24:05;;;;;;;;;;;;;;;;;;2132446;27;19923;-43
2022/10/02 00:25:05;;;;;;;;;;;;;;;;;;2132248;27;19924;-43
2022/10/02 00:26:06;;;;;;;;;;;;;;;;;;2132448;27;20143;-44
2022/10/02 00:27:08;;;;;;;;;;;;;;;;;;2132219;27;20368;-42
2022/10/02 00:28:09;;;;;;;;;;;;;;;;;;2132295;27;20380;-44
2022/10/02 00:29:10;;;;;;;;;;;;;;;;;;2132335;27;19931;-42
2022/10/02 00:30:11;;;;;;;;;;;;;;;;;;2132249;27;20030;-42
2022/10/02 00:31:12;;;;;;;;;;;;;;;;;;2132336;27;19924;-43
2022/10/02 00:32:13;;;;;;;;;;;;;;;;;;2132300;27;19923;-42
2022/10/02 00:33:13;;;;;;;;;;;;;;;;;;2132576;27;20476;-44
2022/10/02 00:34:20;;;;;;;;;;;;;;;;;;2132406;27;20331;-44
2022/10/02 00:35:21;;;;;;;;;;;;;;;;;;2132222;27;19924;-44
2022/10/02 00:36:22;;;;;;;;;;;;;;;;;;2132300;27;20025;-44
2022/10/02 00:37:22;;;;;;;;;;;;;;;;;;2132233;27;19930;-42
2022/10/02 00:38:23;;;;;;;;;;;;;;;;;;2132467;27;20492;-42
2022/10/02 00:39:24;;;;;;;;;;;;;;;;;;2132383;27;19970;-42
2022/10/02 00:40:25;;;;;;;;;;;;;;;;;;2132224;27;19923;-43
2022/10/02 00:41:26;;;;;;;;;;;;;;;;;;2132087;27;20343;-42
2022/10/02 00:42:27;;;;;;;;;;;;;;;;;;2132265;27;19970;-43
2022/10/02 00:43:27;;;;;;;;;;;;;;;;;;2132323;27;19927;-42
2022/10/02 00:44:28;;;;;;;;;;;;;;;;;;2132120;27;19967;-42
2022/10/02 00:45:29;;;;;;;;;;;;;;;;;;2132290;27;19975;-42
2022/10/02 00:46:30;;;;;;;;;;;;;;;;;;2132075;27;20269;-42
2022/10/02 00:47:31;;;;;;;;;;;;;;;;;;2132350;27;19950;-43
2022/10/02 00:48:32;;;;;;;;;;;;;;;;;;2132186;27;20374;-42
2022/10/02 00:49:32;;;;;;;;;;;;;;;;;;2132144;27;19972;-42
2022/10/02 00:50:33;;;;;;;;;;;;;;;;;;2132248;27;20368;-42
2022/10/02 00:51:34;;;;;;;;;;;;;;;;;;2132073;27;19923;-42
2022/10/02 00:52:35;;;;;;;;;;;;;;;;;;2132282;27;19930;-42
2022/10/02 00:53:35;;;;;;;;;;;;;;;;;;2132225;27;20307;-44
2022/10/02 00:54:36;;;;;;;;;;;;;;;;;;2132100;27;20037;-42
2022/10/02 00:55:37;;;;;;;;;;;;;;;;;;2132084;27;19949;-42
2022/10/02 00:56:38;;;;;;;;;;;;;;;;;;2132205;27;19929;-42
2022/10/02 00:57:39;;;;;;;;;;;;;;;;;;2132407;27;19923;-46
2022/10/02 00:58:40;;;;;;;;;;;;;;;;;;2132145;27;20172;-44
2022/10/02 00:59:41;;;;;;;;;;;;;;;;;;2132243;27;20426;-44
2022/10/02 01:00:42;;;;;;;;;;;;;;;;;;2132064;27;20333;-44
2022/10/02 01:01:43;;;;;;;;;;;;;;;;;;2132079;27;20253;-44
2022/10/02 01:02:44;;;;;;;;;;;;;;;;;;2131632;27;19930;-44
2022/10/02 01:03:44;;;;;;;;;;;;;;;;;;2131857;27;19931;-43
2022/10/02 01:04:46;;;;;;;;;;;;;;;;;;2132154;27;19966;-42
2022/10/02 01:05:47;;;;;;;;;;;;;;;;;;2132430;27;19926;-45
2022/10/02 01:06:48;;;;;;;;;;;;;;;;;;2131935;27;19930;-44
2022/10/02 01:07:49;;;;;;;;;;;;;;;;;;2132041;27;19923;-44
2022/10/02 01:08:51;;;;;;;;;;;;;;;;;;2124760;27;19928;-46
2022/10/02 01:09:52;;;;;;;;;;;;;;;;;;2123384;28;19923;-44
2022/10/02 01:10:53;;;;;;;;;;;;;;;;;;2123420;28;19923;-44
2022/10/02 01:11:53;;;;;;;;;;;;;;;;;;2130503;27;19953;-45
2022/10/02 01:12:54;;;;;;;;;;;;;;;;;;2132114;27;19984;-45
2022/10/02 01:13:55;;;;;;;;;;;;;;;;;;2132090;27;19923;-44
2022/10/02 01:14:56;;;;;;;;;;;;;;;;;;2132161;27;20376;-44
2022/10/02 01:15:58;;;;;;;;;;;;;;;;;;2131926;27;19927;-45
2022/10/02 01:16:59;;;;;;;;;;;;;;;;;;2132284;27;19930;-42
2022/10/02 01:18:01;;;;;;;;;;;;;;;;;;2131947;27;19929;-42
2022/10/02 01:19:02;;;;;;;;;;;;;;;;;;2131936;27;19923;-42
2022/10/02 01:20:03;;;;;;;;;;;;;;;;;;2131985;27;19923;-42
2022/10/02 01:21:04;;;;;;;;;;;;;;;;;;2132154;27;19930;-43
2022/10/02 01:22:05;;;;;;;;;;;;;;;;;;2132027;27;19923;-43
2022/10/02 01:23:06;;;;;;;;;;;;;;;;;;2131950;27;19923;-42
2022/10/02 01:24:06;;;;;;;;;;;;;;;;;;2132010;27;20391;-42
2022/10/02 01:25:07;;;;;;;;;;;;;;;;;;2131885;27;20385;-42
2022/10/02 01:26:08;;;;;;;;;;;;;;;;;;2132041;27;19923;-42
2022/10/02 01:27:09;;;;;;;;;;;;;;;;;;2132154;27;19935;-42
2022/10/02 01:28:10;;;;;;;;;;;;;;;;;;2131960;27;19923;-43
2022/10/02 01:29:11;;;;;;;;;;;;;;;;;;2131486;27;19926;-42
2022/10/02 01:30:12;;;;;;;;;;;;;;;;;;2131853;27;20379;-42
2022/10/02 01:31:14;;;;;;;;;;;;;;;;;;2131886;27;20030;-43
2022/10/02 01:32:15;;;;;;;;;;;;;;;;;;2131661;27;19942;-42
2022/10/02 01:33:16;;;;;;;;;;;;;;;;;;2132006;27;19923;-42
2022/10/02 01:34:17;;;;;;;;;;;;;;;;;;2132216;27;20389;-42
2022/10/02 01:35:18;;;;;;;;;;;;;;;;;;2132173;27;20329;-45
2022/10/02 01:36:20;;;;;;;;;;;;;;;;;;2131772;27;19975;-46
2022/10/02 01:37:21;;;;;;;;;;;;;;;;;;2131961;27;19931;-44
2022/10/02 01:38:22;;;;;;;;;;;;;;;;;;2131815;27;19923;-44
2022/10/02 01:39:23;;;;;;;;;;;;;;;;;;2131818;27;20390;-45
2022/10/02 01:40:23;;;;;;;;;;;;;;;;;;2131962;27;19992;-45
2022/10/02 01:41:24;;;;;;;;;;;;;;;;;;2131880;27;20303;-44
2022/10/02 01:42:25;;;;;;;;;;;;;;;;;;2131942;27;20378;-44
2022/10/02 01:43:26;;;;;;;;;;;;;;;;;;2132040;27;20364;-42
2022/10/02 01:44:27;;;;;;;;;;;;;;;;;;2131797;27;19962;-43
2022/10/02 01:45:28;;;;;;;;;;;;;;;;;;2132087;27;20371;-46
2022/10/02 01:46:29;;;;;;;;;;;;;;;;;;2131846;27;19923;-44
2022/10/02 01:47:29;;;;;;;;;;;;;;;;;;2131926;27;20337;-44
2022/10/02 01:48:30;;;;;;;;;;;;;;;;;;2131747;27;19923;-44
2022/10/02 01:49:31;;;;;;;;;;;;;;;;;;2132074;27;19923;-42
2022/10/02 01:50:32;;;;;;;;;;;;;;;;;;2131772;27;19977;-42
2022/10/02 01:51:33;;;;;;;;;;;;;;;;;;2131731;27;19976;-42
2022/10/02 01:52:34;;;;;;;;;;;;;;;;;;2132017;27;19972;-42
2022/10/02 01:53:34;;;;;;;;;;;;;;;;;;2131785;27;19975;-42
2022/10/02 01:54:35;;;;;;;;;;;;;;;;;;2131802;27;19923;-42
2022/10/02 01:55:37;;;;;;;;;;;;;;;;;;2131774;27;20325;-43
2022/10/02 01:56:38;;;;;;;;;;;;;;;;;;2131768;27;19927;-42
2022/10/02 01:57:39;;;;;;;;;;;;;;;;;;2131813;27;19923;-42
2022/10/02 01:58:40;;;;;;;;;;;;;;;;;;2131755;27;19923;-42
2022/10/02 01:59:41;;;;;;;;;;;;;;;;;;2131373;27;20009;-44
2022/10/02 02:00:42;;;;;;;;;;;;;;;;;;2131807;27;20031;-44
2022/10/02 02:01:42;;;;;;;;;;;;;;;;;;2131497;27;20022;-45
2022/10/02 02:02:43;;;;;;;;;;;;;;;;;;2131843;27;19930;-44
2022/10/02 02:03:44;;;;;;;;;;;;;;;;;;2131859;27;19930;-43
2022/10/02 02:04:45;;;;;;;;;;;;;;;;;;2127155;27;19930;-42
2022/10/02 02:05:46;;;;;;;;;;;;;;;;;;2123169;28;19930;-43
2022/10/02 02:06:47;;;;;;;;;;;;;;;;;;2123027;27;19923;-42
2022/10/02 02:07:47;;;;;;;;;;;;;;;;;;2123084;28;19935;-41
2022/10/02 02:08:49;;;;;;;;;;;;;;;;;;2123152;28;19968;-43
2022/10/02 02:09:49;;;;;;;;;;;;;;;;;;2123420;28;19923;-45
2022/10/02 02:10:50;;;;;;;;;;;;;;;;;;2123010;28;20402;-45
2022/10/02 02:11:51;;;;;;;;;;;;;;;;;;2129876;27;20208;-45
2022/10/02 02:12:52;;;;;;;;;;;;;;;;;;2131789;27;19930;-46
2022/10/02 02:13:53;;;;;;;;;;;;;;;;;;2131888;27;19924;-45
2022/10/02 02:14:54;;;;;;;;;;;;;;;;;;2132887;27;19923;-45
2022/10/02 02:15:54;;;;;;;;;;;;;;;;;;2133148;27;19945;-45
2022/10/02 02:16:55;;;;;;;;;;;;;;;;;;2133197;27;20014;-45
2022/10/02 02:17:56;;;;;;;;;;;;;;;;;;2133328;27;20003;-45
2022/10/02 02:18:57;;;;;;;;;;;;;;;;;;2133120;27;20344;-45
2022/10/02 02:19:58;;;;;;;;;;;;;;;;;;2133310;27;19923;-44
2022/10/02 02:20:59;;;;;;;;;;;;;;;;;;2133103;27;20394;-45
2022/10/02 02:21:59;;;;;;;;;;;;;;;;;;2133090;27;19923;-44
2022/10/02 02:23:00;;;;;;;;;;;;;;;;;;2133234;27;19929;-44
2022/10/02 02:24:01;;;;;;;;;;;;;;;;;;2133080;27;20018;-45
2022/10/02 02:25:02;;;;;;;;;;;;;;;;;;2133102;27;19945;-46
2022/10/02 02:26:03;;;;;;;;;;;;;;;;;;2133150;27;19923;-46
2022/10/02 02:27:04;;;;;;;;;;;;;;;;;;2133158;27;19923;-46
2022/10/02 02:28:04;;;;;;;;;;;;;;;;;;2132842;27;20017;-45
2022/10/02 02:29:05;;;;;;;;;;;;;;;;;;2133084;27;19923;-45
2022/10/02 02:30:06;;;;;;;;;;;;;;;;;;2133131;27;19923;-45
2022/10/02 02:31:07;;;;;;;;;;;;;;;;;;2133197;27;20017;-43
2022/10/02 02:32:08;;;;;;;;;;;;;;;;;;2133010;27;19973;-43
2022/10/02 02:33:09;;;;;;;;;;;;;;;;;;2133013;27;19980;-43
2022/10/02 02:34:09;;;;;;;;;;;;;;;;;;2133230;27;20048;-43
2022/10/02 02:35:11;;;;;;;;;;;;;;;;;;2133007;27;20013;-43
2022/10/02 02:36:12;;;;;;;;;;;;;;;;;;2133156;27;19934;-43
2022/10/02 02:37:15;;;;;;;;;;;;;;;;;;2132869;27;19945;-43
2022/10/02 02:38:16;;;;;;;;;;;;;;;;;;2133012;27;19923;-43
2022/10/02 02:39:17;;;;;;;;;;;;;;;;;;2132941;27;19927;-43
2022/10/02 02:40:18;;;;;;;;;;;;;;;;;;2132993;27;20394;-44
2022/10/02 02:41:19;;;;;;;;;;;;;;;;;;2133083;27;20429;-44
2022/10/02 02:42:20;;;;;;;;;;;;;;;;;;2132878;27;19923;-43
2022/10/02 02:43:25;;;;;;;;;;;;;;;;;;2133009;27;19937;-43
2022/10/02 02:44:26;;;;;;;;;;;;;;;;;;2133012;27;19923;-44
2022/10/02 02:45:27;;;;;;;;;;;;;;;;;;2132987;27;20293;-43
2022/10/02 02:46:28;;;;;;;;;;;;;;;;;;2132949;27;19923;-43
2022/10/02 02:47:30;;;;;;;;;;;;;;;;;;2132941;27;19962;-43
2022/10/02 02:48:31;;;;;;;;;;;;;;;;;;2132982;27;19923;-43
2022/10/02 02:49:32;;;;;;;;;;;;;;;;;;2132847;27;20291;-43
2022/10/02 02:50:33;;;;;;;;;;;;;;;;;;2132982;27;19962;-42
2022/10/02 02:51:34;;;;;;;;;;;;;;;;;;2132936;27;20415;-43
2022/10/02 02:52:34;;;;;;;;;;;;;;;;;;2133086;27;19923;-43
2022/10/02 02:53:35;;;;;;;;;;;;;;;;;;2132861;27;20053;-43
2022/10/02 02:54:36;;;;;;;;;;;;;;;;;;2133034;27;19930;-43
2022/10/02 02:55:37;;;;;;;;;;;;;;;;;;2132895;27;20021;-43
2022/10/02 02:56:43;;;;;;;;;;;;;;;;;;2132946;27;19923;-44
2022/10/02 02:57:43;;;;;;;;;;;;;;;;;;2132888;27;20398;-43
2022/10/02 02:58:44;;;;;;;;;;;;;;;;;;2133297;27;19923;-43
2022/10/02 02:59:45;;;;;;;;;;;;;;;;;;2132887;27;19923;-43
2022/10/02 03:00:46;;;;;;;;;;;;;;;;;;2130455;27;19958;-42
2022/10/02 03:01:47;;;;;;;;;;;;;;;;;;2124233;27;20380;-43
2022/10/02 03:02:53;;;;;;;;;;;;;;;;;;2124424;28;19927;-43
2022/10/02 03:03:54;;;;;;;;;;;;;;;;;;2124302;28;19923;-43
2022/10/02 03:04:54;;;;;;;;;;;;;;;;;;2124275;28;19923;-43
2022/10/02 03:05:55;;;;;;;;;;;;;;;;;;2124425;28;20280;-43
2022/10/02 03:06:56;;;;;;;;;;;;;;;;;;2124254;27;19928;-43
2022/10/02 03:07:57;;;;;;;;;;;;;;;;;;2124289;28;19927;-43
2022/10/02 03:08:58;;;;;;;;;;;;;;;;;;2124131;28;19923;-43
2022/10/02 03:10:00;;;;;;;;;;;;;;;;;;2124269;28;19923;-43
2022/10/02 03:11:02;;;;;;;;;;;;;;;;;;2124447;28;19930;-45
2022/10/02 03:12:03;;;;;;;;;;;;;;;;;;2124428;27;19945;-46
2022/10/02 03:13:03;;;;;;;;;;;;;;;;;;2124323;28;19927;-45
2022/10/02 03:14:04;;;;;;;;;;;;;;;;;;2124371;28;20325;-45
2022/10/02 03:15:05;;;;;;;;;;;;;;;;;;2124336;28;19924;-45
2022/10/02 03:16:06;;;;;;;;;;;;;;;;;;2124158;28;19923;-45
2022/10/02 03:17:07;;;;;;;;;;;;;;;;;;2124124;27;20342;-46
2022/10/02 03:18:08;;;;;;;;;;;;;;;;;;2124325;28;19937;-45
2022/10/02 03:19:09;;;;;;;;;;;;;;;;;;2124166;28;20046;-45
2022/10/02 03:20:10;;;;;;;;;;;;;;;;;;2124300;28;19935;-45
2022/10/02 03:21:10;;;;;;;;;;;;;;;;;;2124148;28;20344;-46
2022/10/02 03:22:11;;;;;;;;;;;;;;;;;;2124060;27;19937;-45
2022/10/02 03:23:12;;;;;;;;;;;;;;;;;;2124175;28;20006;-46
2022/10/02 03:24:13;;;;;;;;;;;;;;;;;;2126048;27;19923;-45
2022/10/02 03:25:14;;;;;;;;;;;;;;;;;;2132819;27;19923;-45
2022/10/02 03:26:15;;;;;;;;;;;;;;;;;;2132152;27;20013;-43
2022/10/02 03:27:15;;;;;;;;;;;;;;;;;;2132624;27;19976;-43
2022/10/02 03:28:17;;;;;;;;;;;;;;;;;;2132799;27;20368;-43
2022/10/02 03:29:32;;;;;;;;;;;;;;;;;;2132618;27;20030;-43
2022/10/02 03:30:33;;;;;;;;;;;;;;;;;;2132828;27;20458;-43
2022/10/02 03:31:34;;;;;;;;;;;;;;;;;;2132747;27;20025;-45
2022/10/02 03:32:34;;;;;;;;;;;;;;;;;;2132692;27;20318;-45
2022/10/02 03:33:35;;;;;;;;;;;;;;;;;;2132717;27;19923;-45
2022/10/02 03:34:36;;;;;;;;;;;;;;;;;;2132785;27;19923;-45
2022/10/02 03:35:37;;;;;;;;;;;;;;;;;;2132586;27;20277;-45
2022/10/02 03:36:38;;;;;;;;;;;;;;;;;;2132688;27;20429;-46
2022/10/02 03:37:39;;;;;;;;;;;;;;;;;;2132753;27;19930;-46
2022/10/02 03:38:40;;;;;;;;;;;;;;;;;;2132646;27;19923;-47
2022/10/02 03:39:41;;;;;;;;;;;;;;;;;;2132769;27;20394;-46
2022/10/02 03:40:42;;;;;;;;;;;;;;;;;;2132592;27;19923;-46
2022/10/02 03:41:42;;;;;;;;;;;;;;;;;;2132627;27;20368;-46
2022/10/02 03:42:43;;;;;;;;;;;;;;;;;;2132521;27;20317;-46
2022/10/02 03:43:44;;;;;;;;;;;;;;;;;;2132606;27;19941;-46
2022/10/02 03:44:45;;;;;;;;;;;;;;;;;;2132640;27;20524;-46
2022/10/02 03:45:46;;;;;;;;;;;;;;;;;;2132718;27;19930;-46
2022/10/02 03:46:52;;;;;;;;;;;;;;;;;;2132594;27;19937;-46
2022/10/02 03:47:52;;;;;;;;;;;;;;;;;;2132681;27;20017;-46
2022/10/02 03:48:55;;;;;;;;;;;;;;;;;;2132447;27;19968;-46
2022/10/02 03:49:55;;;;;;;;;;;;;;;;;;2132038;27;19927;-44
2022/10/02 03:50:57;;;;;;;;;;;;;;;;;;2132528;27;20372;-44
2022/10/02 03:51:58;;;;;;;;;;;;;;;;;;2132455;27;19923;-45
2022/10/02 03:52:59;;;;;;;;;;;;;;;;;;2132863;27;19974;-44
2022/10/02 03:54:00;;;;;;;;;;;;;;;;;;2132533;27;20115;-44
2022/10/02 03:55:00;;;;;;;;;;;;;;;;;;2132852;27;20296;-46
2022/10/02 03:56:01;;;;;;;;;;;;;;;;;;2132433;27;19923;-46
2022/10/02 03:57:02;;;;;;;;;;;;;;;;;;2129871;27;20010;-46
2022/10/02 03:58:04;;;;;;;;;;;;;;;;;;2123858;28;19946;-46
2022/10/02 03:59:05;;;;;;;;;;;;;;;;;;2124180;28;20437;-46
2022/10/02 04:00:06;;;;;;;;;;;;;;;;;;2124120;28;20299;-44
2022/10/02 04:01:07;;;;;;;;;;;;;;;;;;2123751;28;19928;-44
2022/10/02 04:02:08;;;;;;;;;;;;;;;;;;2123819;27;19930;-44
2022/10/02 04:03:09;;;;;;;;;;;;;;;;;;2123851;28;19923;-43
2022/10/02 04:04:10;;;;;;;;;;;;;;;;;;2124280;28;19923;-46
2022/10/02 04:05:11;;;;;;;;;;;;;;;;;;2123879;28;19927;-46
2022/10/02 04:06:12;;;;;;;;;;;;;;;;;;2123891;28;19923;-46
2022/10/02 04:07:13;;;;;;;;;;;;;;;;;;2126177;27;19923;-45
2022/10/02 04:08:14;;;;;;;;;;;;;;;;;;2132429;27;20399;-46
2022/10/02 04:09:15;;;;;;;;;;;;;;;;;;2132402;27;19927;-46
2022/10/02 04:10:16;;;;;;;;;;;;;;;;;;2132546;27;19961;-46
2022/10/02 04:11:17;;;;;;;;;;;;;;;;;;2130269;27;20386;-46
2022/10/02 04:12:18;;;;;;;;;;;;;;;;;;2123688;27;19980;-46
2022/10/02 04:13:19;;;;;;;;;;;;;;;;;;2124024;28;19924;-43
2022/10/02 04:14:19;;;;;;;;;;;;;;;;;;2123971;28;19945;-43
2022/10/02 04:15:20;;;;;;;;;;;;;;;;;;2123941;28;19962;-43
2022/10/02 04:16:23;;;;;;;;;;;;;;;;;;2123660;27;20376;-43
2022/10/02 04:17:24;;;;;;;;;;;;;;;;;;2123902;28;19923;-43
2022/10/02 04:18:25;;;;;;;;;;;;;;;;;;2123965;28;19924;-44
2022/10/02 04:19:26;;;;;;;;;;;;;;;;;;2123751;28;19924;-43
2022/10/02 04:20:27;;;;;;;;;;;;;;;;;;2125685;27;19930;-44
2022/10/02 04:21:28;;;;;;;;;;;;;;;;;;2132173;27;19931;-43
2022/10/02 04:22:28;;;;;;;;;;;;;;;;;;2132386;27;20269;-44
2022/10/02 04:23:29;;;;;;;;;;;;;;;;;;2132265;27;19941;-43
2022/10/02 04:24:30;;;;;;;;;;;;;;;;;;2132428;27;20041;-43
2022/10/02 04:25:31;;;;;;;;;;;;;;;;;;2132305;27;20455;-44
2022/10/02 04:26:32;;;;;;;;;;;;;;;;;;2132643;27;19927;-44
2022/10/02 04:27:33;;;;;;;;;;;;;;;;;;2132558;27;20372;-43
2022/10/02 04:28:33;;;;;;;;;;;;;;;;;;2132479;27;19946;-43
2022/10/02 04:29:34;;;;;;;;;;;;;;;;;;2132317;27;19967;-44
2022/10/02 04:30:35;;;;;;;;;;;;;;;;;;2132303;27;20402;-43
2022/10/02 04:31:36;;;;;;;;;;;;;;;;;;2132325;27;19929;-43
2022/10/02 04:32:37;;;;;;;;;;;;;;;;;;2132291;27;19924;-43
2022/10/02 04:33:38;;;;;;;;;;;;;;;;;;2132277;27;19949;-43
2022/10/02 04:34:38;;;;;;;;;;;;;;;;;;2132525;27;19934;-43
2022/10/02 04:35:39;;;;;;;;;;;;;;;;;;2132352;27;19923;-43
2022/10/02 04:36:40;;;;;;;;;;;;;;;;;;2132332;27;19927;-44
2022/10/02 04:37:41;;;;;;;;;;;;;;;;;;2131475;27;20009;-44
2022/10/02 04:38:42;;;;;;;;;;;;;;;;;;2131713;27;19924;-44
2022/10/02 04:39:43;;;;;;;;;;;;;;;;;;2132223;27;19966;-43
2022/10/02 04:40:49;;;;;;;;;;;;;;;;;;2132164;27;19923;-43
2022/10/02 04:41:50;;;;;;;;;;;;;;;;;;2132415;27;19923;-43
2022/10/02 04:42:50;;;;;;;;;;;;;;;;;;2132359;27;19991;-43
2022/10/02 04:43:51;;;;;;;;;;;;;;;;;;2132138;27;19929;-43
2022/10/02 04:44:52;;;;;;;;;;;;;;;;;;2132416;27;20376;-45
2022/10/02 04:45:53;;;;;;;;;;;;;;;;;;2132116;27;20033;-46
2022/10/02 04:46:54;;;;;;;;;;;;;;;;;;2132066;27;19931;-46
2022/10/02 04:47:55;;;;;;;;;;;;;;;;;;2132383;27;20376;-47
2022/10/02 04:48:56;;;;;;;;;;;;;;;;;;2132014;27;19952;-47
2022/10/02 04:49:58;;;;;;;;;;;;;;;;;;2132096;27;19966;-45
2022/10/02 04:50:59;;;;;;;;;;;;;;;;;;2132394;27;20409;-45
2022/10/02 04:52:00;;;;;;;;;;;;;;;;;;2132153;27;19923;-43
2022/10/02 04:53:00;;;;;;;;;;;;;;;;;;2132390;27;20380;-45
2022/10/02 04:54:01;;;;;;;;;;;;;;;;;;2132156;27;20365;-45
2022/10/02 04:55:02;;;;;;;;;;;;;;;;;;2132095;27;19923;-45
2022/10/02 04:56:03;;;;;;;;;;;;;;;;;;2132276;27;20290;-46
2022/10/02 04:57:04;;;;;;;;;;;;;;;;;;2131954;27;19923;-46
2022/10/02 04:58:05;;;;;;;;;;;;;;;;;;2132133;27;19937;-46
2022/10/02 04:59:06;;;;;;;;;;;;;;;;;;2132095;27;19923;-45
2022/10/02 05:00:07;;;;;;;;;;;;;;;;;;2132076;27;19930;-46
2022/10/02 05:01:07;;;;;;;;;;;;;;;;;;2132297;27;19927;-43
2022/10/02 05:02:08;;;;;;;;;;;;;;;;;;2132167;27;19924;-44
2022/10/02 05:03:09;;;;;;;;;;;;;;;;;;2132231;27;19927;-43
2022/10/02 05:04:10;;;;;;;;;;;;;;;;;;2131980;27;20336;-43
2022/10/02 05:05:11;;;;;;;;;;;;;;;;;;2131968;27;19949;-43
2022/10/02 05:06:12;;;;;;;;;;;;;;;;;;2132015;27;19954;-43
2022/10/02 05:07:12;;;;;;;;;;;;;;;;;;2132108;27;20382;-44
2022/10/02 05:08:13;;;;;;;;;;;;;;;;;;2132175;27;19981;-43
2022/10/02 05:09:14;;;;;;;;;;;;;;;;;;2132074;27;19953;-45
2022/10/02 05:10:15;;;;;;;;;;;;;;;;;;2132055;27;19923;-43
2022/10/02 05:11:16;;;;;;;;;;;;;;;;;;2130028;27;20011;-44
2022/10/02 05:12:17;;;;;;;;;;;;;;;;;;2123472;27;19928;-43
2022/10/02 05:13:17;;;;;;;;;;;;;;;;;;2123416;28;19957;-43
2022/10/02 05:14:18;;;;;;;;;;;;;;;;;;2123410;28;19924;-43
2022/10/02 05:15:19;;;;;;;;;;;;;;;;;;2123489;28;19930;-44
2022/10/02 05:16:20;;;;;;;;;;;;;;;;;;2123414;28;20327;-44
2022/10/02 05:17:21;;;;;;;;;;;;;;;;;;2130787;27;19923;-43
2022/10/02 05:18:22;;;;;;;;;;;;;;;;;;2131917;27;19981;-43
2022/10/02 05:19:22;;;;;;;;;;;;;;;;;;2131931;27;19984;-43
2022/10/02 05:20:23;;;;;;;;;;;;;;;;;;2131941;27;19937;-43
2022/10/02 05:21:24;;;;;;;;;;;;;;;;;;2131919;27;19923;-43
2022/10/02 05:22:25;;;;;;;;;;;;;;;;;;2132221;27;20021;-46
2022/10/02 05:23:26;;;;;;;;;;;;;;;;;;2131945;27;20384;-45
2022/10/02 05:24:27;;;;;;;;;;;;;;;;;;2132088;27;19923;-45
2022/10/02 05:25:28;;;;;;;;;;;;;;;;;;2132296;27;20021;-45
2022/10/02 05:26:30;;;;;;;;;;;;;;;;;;2131742;27;19930;-43
2022/10/02 05:27:31;;;;;;;;;;;;;;;;;;2131913;27;20032;-44
2022/10/02 05:28:32;;;;;;;;;;;;;;;;;;2132021;27;19923;-45
2022/10/02 05:29:32;;;;;;;;;;;;;;;;;;2132170;27;19968;-46
2022/10/02 05:30:33;;;;;;;;;;;;;;;;;;2132158;27;20417;-47
2022/10/02 05:31:34;;;;;;;;;;;;;;;;;;2131840;27;19923;-45
2022/10/02 05:32:35;;;;;;;;;;;;;;;;;;2131835;27;19922;-45
2022/10/02 05:33:36;;;;;;;;;;;;;;;;;;2131860;27;19923;-45
2022/10/02 05:34:37;;;;;;;;;;;;;;;;;;2132040;27;19930;-45
2022/10/02 05:35:37;;;;;;;;;;;;;;;;;;2131842;27;19927;-45
2022/10/02 05:36:38;;;;;;;;;;;;;;;;;;2131795;27;19923;-47
2022/10/02 05:37:39;;;;;;;;;;;;;;;;;;2131784;27;19923;-47
2022/10/02 05:38:40;;;;;;;;;;;;;;;;;;2132164;27;19984;-45
2022/10/02 05:39:41;;;;;;;;;;;;;;;;;;2132081;27;20397;-47
2022/10/02 05:40:42;;;;;;;;;;;;;;;;;;2132013;27;19991;-45
2022/10/02 05:41:43;;;;;;;;;;;;;;;;;;2131780;27;19981;-44
2022/10/02 05:42:44;;;;;;;;;;;;;;;;;;2132143;27;20360;-46
2022/10/02 05:43:44;;;;;;;;;;;;;;;;;;2131982;27;19976;-45
2022/10/02 05:44:45;;;;;;;;;;;;;;;;;;2131998;27;19974;-46
2022/10/02 05:45:46;;;;;;;;;;;;;;;;;;2131788;27;19957;-46
2022/10/02 05:46:47;;;;;;;;;;;;;;;;;;2131957;27;19930;-46
2022/10/02 05:47:48;;;;;;;;;;;;;;;;;;2131932;27;19927;-46
2022/10/02 05:48:49;;;;;;;;;;;;;;;;;;2131602;27;19978;-46
2022/10/02 05:49:49;;;;;;;;;;;;;;;;;;2131455;27;19956;-45
2022/10/02 05:50:50;;;;;;;;;;;;;;;;;;2131830;27;20017;-45
2022/10/02 05:51:52;;;;;;;;;;;;;;;;;;2132016;27;19927;-47
2022/10/02 05:52:53;;;;;;;;;;;;;;;;;;2131739;27;19927;-47
2022/10/02 05:53:56;;;;;;;;;;;;;;;;;;2132190;27;19984;-45
2022/10/02 05:54:57;;;;;;;;;;;;;;;;;;2131784;27;19923;-45
2022/10/02 05:55:58;;;;;;;;;;;;;;;;;;2131926;27;19927;-47
2022/10/02 05:56:59;;;;;;;;;;;;;;;;;;2131844;27;19924;-46
2022/10/02 05:58:00;;;;;;;;;;;;;;;;;;2131771;27;19923;-46
2022/10/02 05:59:01;;;;;;;;;;;;;;;;;;2131874;27;19923;-46
2022/10/02 06:00:01;;;;;;;;;;;;;;;;;;2131739;27;19929;-46
2022/10/02 06:01:03;;;;;;;;;;;;;;;;;;2131843;27;19923;-48
2022/10/02 06:02:04;;;;;;;;;;;;;;;;;;2131609;27;20314;-47
2022/10/02 06:03:07;;;;;;;;;;;;;;;;;;2131626;27;19937;-48
2022/10/02 06:04:07;;;;;;;;;;;;;;;;;;2131745;27;19941;-45
2022/10/02 06:05:08;;;;;;;;;;;;;;;;;;2131840;27;19927;-46
2022/10/02 06:06:09;;;;;;;;;;;;;;;;;;2131825;27;19923;-47
2022/10/02 06:07:10;;;;;;;;;;;;;;;;;;2131583;27;19942;-46
2022/10/02 06:08:11;;;;;;;;;;;;;;;;;;2131819;27;20361;-46
2022/10/02 06:09:12;;;;;;;;;;;;;;;;;;2132043;27;20419;-44
2022/10/02 06:10:17;;;;;;;;;;;;;;;;;;2131724;27;19923;-43
2022/10/02 06:11:18;;;;;;;;;;;;;;;;;;2129358;27;19923;-43
2022/10/02 06:12:19;;;;;;;;;;;;;;;;;;2123198;27;20425;-45
2022/10/02 06:13:20;;;;;;;;;;;;;;;;;;2128038;27;20372;-44
2022/10/02 06:14:21;;;;;;;;;;;;;;;;;;2131679;27;19923;-44
2022/10/02 06:15:21;;;;;;;;;;;;;;;;;;2131726;27;19958;-45
2022/10/02 06:16:22;;;;;;;;;;;;;;;;;;2131674;27;19923;-45
2022/10/02 06:17:23;;;;;;;;;;;;;;;;;;2131643;27;19923;-44
2022/10/02 06:18:24;;;;;;;;;;;;;;;;;;2131674;27;19935;-45
2022/10/02 06:19:25;;;;;;;;;;;;;;;;;;2131692;27;19923;-44
2022/10/02 06:20:26;;;;;;;;;;;;;;;;;;2131621;27;19937;-44
2022/10/02 06:21:27;;;;;;;;;;;;;;;;;;2132165;27;19973;-44
2022/10/02 06:22:28;;;;;;;;;;;;;;;;;;2131585;27;20037;-43
2022/10/02 06:23:29;;;;;;;;;;;;;;;;;;2131623;27;19980;-44
2022/10/02 06:24:29;;;;;;;;;;;;;;;;;;2131837;27;19923;-46
2022/10/02 06:25:30;;;;;;;;;;;;;;;;;;2131779;27;20423;-47
2022/10/02 06:26:31;;;;;;;;;;;;;;;;;;2131626;27;20022;-47
2022/10/02 06:27:32;;;;;;;;;;;;;;;;;;2131812;27;20026;-47
2022/10/02 06:28:33;;;;;;;;;;;;;;;;;;2131701;27;19923;-46
2022/10/02 06:29:34;;;;;;;;;;;;;;;;;;2131496;27;19946;-47
2022/10/02 06:30:34;;;;;;;;;;;;;;;;;;2131546;27;19923;-46
2022/10/02 06:31:36;;;;;;;;;;;;;;;;;;2131520;27;19929;-47
2022/10/02 06:32:36;;;;;;;;;;;;;;;;;;2131613;27;20447;-47
2022/10/02 06:33:37;;;;;;;;;;;;;;;;;;2131957;27;19951;-48
2022/10/02 06:34:38;;;;;;;;;;;;;;;;;;2131527;27;19927;-48
2022/10/02 06:35:41;;;;;;;;;;;;;;;;;;2131594;27;19923;-46
2022/10/02 06:36:42;;;;;;;;;;;;;;;;;;2131423;27;19923;-47
2022/10/02 06:37:43;;;;;;;;;;;;;;;;;;2131500;27;20034;-47
2022/10/02 06:38:44;;;;;;;;;;;;;;;;;;2131500;27;19923;-46
2022/10/02 06:39:45;;;;;;;;;;;;;;;;;;2131681;27;20257;-47
2022/10/02 06:40:45;;;;;;;;;;;;;;;;;;2131520;27;19934;-47
2022/10/02 06:41:46;;;;;;;;;;;;;;;;;;2131443;27;20011;-48
2022/10/02 06:42:49;;;;;;;;;;;;;;;;;;2131503;27;19923;-48
2022/10/02 06:43:50;;;;;;;;;;;;;;;;;;2131508;27;20298;-48
2022/10/02 06:44:51;;;;;;;;;;;;;;;;;;2131577;27;20334;-48
2022/10/02 06:45:57;;;;;;;;;;;;;;;;;;2131508;27;20022;-47
2022/10/02 06:46:57;;;;;;;;;;;;;;;;;;2131587;27;19923;-46
2022/10/02 06:47:58;;;;;;;;;;;;;;;;;;2131504;27;20387;-48
2022/10/02 06:48:59;;;;;;;;;;;;;;;;;;2131667;27;19923;-45
2022/10/02 06:50:01;;;;;;;;;;;;;;;;;;2131365;27;19923;-45
2022/10/02 06:51:02;;;;;;;;;;;;;;;;;;2131780;27;19923;-45
2022/10/02 06:52:03;;;;;;;;;;;;;;;;;;2131588;27;20395;-45
2022/10/02 06:53:04;;;;;;;;;;;;;;;;;;2131997;27;19923;-45
2022/10/02 06:54:05;;;;;;;;;;;;;;;;;;2131451;27;20288;-45
2022/10/02 06:55:05;;;;;;;;;;;;;;;;;;2131535;27;19929;-46
2022/10/02 06:56:06;;;;;;;;;;;;;;;;;;2131603;27;20029;-46
2022/10/02 06:57:07;;;;;;;;;;;;;;;;;;2131373;27;19930;-46